sensor_id;sensor_type;location;lat;lon;timestamp;pressure;altitude;pressure_sealevel;temperature;humidity
6433;BME280;3249;42.690;23.260;2022-10-17T00:01:27;95682.69;;;5.82;100.00
6433;BME280;3249;42.690;23.260;2022-10-17T00:03:53;95687.00;;;5.90;100.00
6433;BME280;3249;42.690;23.260;2022-10-17T00:06:18;95688.34;;;5.76;100.00
6433;BME280;3249;42.690;23.260;2022-10-17T00:08:43;95674.88;;;5.66;100.00
6433;BME280;3249;42.690;23.260;2022-10-17T00:11:20;95677.13;;;5.69;100.00
6433;BME280;3249;42.690;23.260;2022-10-17T00:13:47;95685.22;;;5.82;100.00
6433;BME280;3249;42.690;23.260;2022-10-17T00:16:14;95686.75;;;5.75;100.00
6433;BME280;3249;42.690;23.260;2022-10-17T00:18:39;95682.28;;;5.52;100.00
6433;BME280;3249;42.690;23.260;2022-10-17T00:21:05;95687.06;;;5.47;100.00
6433;BME280;3249;42.690;23.260;2022-10-17T00:23:32;95686.31;;;5.29;100.00
6433;BME280;3249;42.690;23.260;2022-10-17T00:26:03;95686.41;;;5.19;100.00
6433;BME280;3249;42.690;23.260;2022-10-17T00:28:30;95679.25;;;5.23;100.00
6433;BME280;3249;42.690;23.260;2022-10-17T00:31:01;95686.53;;;5.35;100.00
6433;BME280;3249;42.690;23.260;2022-10-17T00:33:27;95689.03;;;5.27;100.00
6433;BME280;3249;42.690;23.260;2022-10-17T00:38:31;95655.09;;;4.74;100.00
6433;BME280;3249;42.690;23.260;2022-10-17T00:40:56;95692.75;;;5.15;100.00
6433;BME280;3249;42.690;23.260;2022-10-17T00:43:22;95699.16;;;5.19;100.00
6433;BME280;3249;42.690;23.260;2022-10-17T00:45:47;95687.09;;;5.29;100.00
6433;BME280;3249;42.690;23.260;2022-10-17T00:48:13;95698.19;;;5.38;100.00
6433;BME280;3249;42.690;23.260;2022-10-17T00:50:41;95654.00;;;5.20;100.00
6433;BME280;3249;42.690;23.260;2022-10-17T00:53:08;95695.59;;;5.12;100.00
6433;BME280;3249;42.690;23.260;2022-10-17T00:55:38;95686.94;;;5.05;100.00
6433;BME280;3249;42.690;23.260;2022-10-17T00:58:06;95686.03;;;5.14;100.00
6433;BME280;3249;42.690;23.260;2022-10-17T01:00:32;95688.09;;;4.93;100.00
6433;BME280;3249;42.690;23.260;2022-10-17T01:02:57;95692.53;;;5.08;100.00
6433;BME280;3249;42.690;23.260;2022-10-17T01:05:23;95687.25;;;4.67;100.00
6433;BME280;3249;42.690;23.260;2022-10-17T01:07:49;95634.94;;;4.28;100.00
6433;BME280;3249;42.690;23.260;2022-10-17T01:10:16;95690.28;;;4.53;100.00
6433;BME280;3249;42.690;23.260;2022-10-17T01:37:43;95636.88;;;4.34;100.00
6433;BME280;3249;42.690;23.260;2022-10-17T01:40:15;95688.63;;;4.61;100.00
6433;BME280;3249;42.690;23.260;2022-10-17T01:42:57;95682.88;;;4.77;100.00
6433;BME280;3249;42.690;23.260;2022-10-17T01:45:42;95693.06;;;4.94;100.00
6433;BME280;3249;42.690;23.260;2022-10-17T01:48:17;95701.59;;;4.68;100.00
6433;BME280;3249;42.690;23.260;2022-10-17T01:50:50;95700.34;;;4.54;100.00
6433;BME280;3249;42.690;23.260;2022-10-17T01:53:40;95678.03;;;4.39;100.00
6433;BME280;3249;42.690;23.260;2022-10-17T01:56:10;95693.28;;;4.66;100.00
6433;BME280;3249;42.690;23.260;2022-10-17T01:58:48;95707.41;;;4.78;100.00
6433;BME280;3249;42.690;23.260;2022-10-17T02:01:16;95669.81;;;4.45;100.00
6433;BME280;3249;42.690;23.260;2022-10-17T02:03:44;95699.34;;;4.65;100.00
6433;BME280;3249;42.690;23.260;2022-10-17T02:06:10;95705.75;;;4.69;100.00
6433;BME280;3249;42.690;23.260;2022-10-17T02:08:46;95674.78;;;4.64;100.00
6433;BME280;3249;42.690;23.260;2022-10-17T02:11:30;95679.44;;;4.68;100.00
6433;BME280;3249;42.690;23.260;2022-10-17T02:14:11;95712.22;;;4.81;100.00
6433;BME280;3249;42.690;23.260;2022-10-17T02:16:48;95717.06;;;4.84;100.00
6433;BME280;3249;42.690;23.260;2022-10-17T02:19:25;95714.56;;;4.92;100.00
6433;BME280;3249;42.690;23.260;2022-10-17T02:22:00;95722.84;;;5.12;100.00
6433;BME280;3249;42.690;23.260;2022-10-17T02:32:43;95714.78;;;5.16;100.00
6433;BME280;3249;42.690;23.260;2022-10-17T02:35:14;95730.59;;;5.20;100.00
6433;BME280;3249;42.690;23.260;2022-10-17T02:37:41;95671.34;;;4.55;100.00
6433;BME280;3249;42.690;23.260;2022-10-17T02:40:10;95695.91;;;4.74;100.00
6433;BME280;3249;42.690;23.260;2022-10-17T02:42:37;95733.81;;;4.86;100.00
6433;BME280;3249;42.690;23.260;2022-10-17T02:45:04;95693.09;;;4.32;100.00
6433;BME280;3249;42.690;23.260;2022-10-17T02:50:05;95733.97;;;4.40;100.00
6433;BME280;3249;42.690;23.260;2022-10-17T02:52:34;95735.66;;;4.32;100.00
6433;BME280;3249;42.690;23.260;2022-10-17T02:55:15;95742.88;;;4.27;100.00
6433;BME280;3249;42.690;23.260;2022-10-17T02:57:48;95734.22;;;4.20;100.00
6433;BME280;3249;42.690;23.260;2022-10-17T03:00:17;95734.03;;;4.04;100.00
6433;BME280;3249;42.690;23.260;2022-10-17T03:02:48;95742.06;;;4.09;100.00
6433;BME280;3249;42.690;23.260;2022-10-17T03:05:20;95746.84;;;4.21;100.00
6433;BME280;3249;42.690;23.260;2022-10-17T03:07:46;95748.47;;;4.13;100.00
6433;BME280;3249;42.690;23.260;2022-10-17T03:10:11;95743.56;;;4.02;100.00
6433;BME280;3249;42.690;23.260;2022-10-17T03:12:37;95747.91;;;3.92;100.00
6433;BME280;3249;42.690;23.260;2022-10-17T03:15:03;95748.84;;;4.18;100.00
6433;BME280;3249;42.690;23.260;2022-10-17T03:17:29;95742.88;;;4.09;100.00
6433;BME280;3249;42.690;23.260;2022-10-17T03:19:54;95752.56;;;4.23;100.00
6433;BME280;3249;42.690;23.260;2022-10-17T03:22:20;95751.59;;;4.34;100.00
6433;BME280;3249;42.690;23.260;2022-10-17T03:24:45;95749.41;;;4.39;100.00
6433;BME280;3249;42.690;23.260;2022-10-17T03:27:11;95733.88;;;4.32;100.00
6433;BME280;3249;42.690;23.260;2022-10-17T03:29:36;95725.59;;;4.30;100.00
6433;BME280;3249;42.690;23.260;2022-10-17T03:32:02;95723.81;;;4.31;100.00
6433;BME280;3249;42.690;23.260;2022-10-17T03:34:27;95741.69;;;4.04;100.00
6433;BME280;3249;42.690;23.260;2022-10-17T03:36:53;95759.75;;;4.10;100.00
6433;BME280;3249;42.690;23.260;2022-10-17T03:39:18;95756.75;;;4.15;100.00
6433;BME280;3249;42.690;23.260;2022-10-17T03:41:44;95763.50;;;4.16;100.00
6433;BME280;3249;42.690;23.260;2022-10-17T03:44:09;95742.47;;;4.04;100.00
6433;BME280;3249;42.690;23.260;2022-10-17T03:46:34;95722.06;;;3.77;100.00
6433;BME280;3249;42.690;23.260;2022-10-17T03:49:00;95735.66;;;3.95;100.00
6433;BME280;3249;42.690;23.260;2022-10-17T03:51:25;95754.00;;;3.99;100.00
6433;BME280;3249;42.690;23.260;2022-10-17T03:53:51;95767.41;;;4.10;100.00
6433;BME280;3249;42.690;23.260;2022-10-17T03:56:19;95765.97;;;3.98;100.00
6433;BME280;3249;42.690;23.260;2022-10-17T03:58:45;95746.94;;;3.93;100.00
6433;BME280;3249;42.690;23.260;2022-10-17T04:01:13;95767.31;;;3.93;100.00
6433;BME280;3249;42.690;23.260;2022-10-17T04:03:39;95770.63;;;4.03;100.00
6433;BME280;3249;42.690;23.260;2022-10-17T04:06:05;95769.13;;;4.10;100.00
6433;BME280;3249;42.690;23.260;2022-10-17T04:08:31;95772.44;;;4.20;100.00
6433;BME280;3249;42.690;23.260;2022-10-17T04:11:01;95780.84;;;4.30;100.00
6433;BME280;3249;42.690;23.260;2022-10-17T04:13:28;95774.53;;;4.34;100.00
6433;BME280;3249;42.690;23.260;2022-10-17T04:16:05;95778.25;;;4.39;100.00
6433;BME280;3249;42.690;23.260;2022-10-17T04:18:31;95719.25;;;4.07;100.00
6433;BME280;3249;42.690;23.260;2022-10-17T04:20:57;95778.88;;;4.51;100.00
6433;BME280;3249;42.690;23.260;2022-10-17T04:23:25;95783.44;;;4.47;100.00
6433;BME280;3249;42.690;23.260;2022-10-17T04:25:55;95776.31;;;4.24;100.00
6433;BME280;3249;42.690;23.260;2022-10-17T04:28:21;95786.59;;;4.05;100.00
6433;BME280;3249;42.690;23.260;2022-10-17T04:30:47;95788.56;;;4.11;100.00
6433;BME280;3249;42.690;23.260;2022-10-17T04:33:12;95789.97;;;3.96;100.00
6433;BME280;3249;42.690;23.260;2022-10-17T04:35:37;95731.22;;;3.61;100.00
6433;BME280;3249;42.690;23.260;2022-10-17T04:38:03;95793.00;;;4.09;100.00
6433;BME280;3249;42.690;23.260;2022-10-17T04:40:28;95765.16;;;3.98;100.00
6433;BME280;3249;42.690;23.260;2022-10-17T04:42:54;95788.00;;;4.17;100.00
6433;BME280;3249;42.690;23.260;2022-10-17T04:45:19;95763.38;;;4.08;100.00
6433;BME280;3249;42.690;23.260;2022-10-17T04:47:45;95789.34;;;4.21;100.00
6433;BME280;3249;42.690;23.260;2022-10-17T04:50:10;95730.72;;;3.94;100.00
6433;BME280;3249;42.690;23.260;2022-10-17T04:52:36;95788.69;;;4.46;100.00
6433;BME280;3249;42.690;23.260;2022-10-17T04:55:03;95796.44;;;4.54;100.00
6433;BME280;3249;42.690;23.260;2022-10-17T05:00:15;95783.25;;;4.58;100.00
6433;BME280;3249;42.690;23.260;2022-10-17T05:02:40;95802.66;;;4.69;100.00
6433;BME280;3249;42.690;23.260;2022-10-17T05:05:06;95775.66;;;4.49;100.00
6433;BME280;3249;42.690;23.260;2022-10-17T05:07:31;95794.81;;;4.80;100.00
6433;BME280;3249;42.690;23.260;2022-10-17T05:09:57;95789.34;;;4.75;100.00
6433;BME280;3249;42.690;23.260;2022-10-17T05:12:23;95775.84;;;4.38;100.00
6433;BME280;3249;42.690;23.260;2022-10-17T05:14:52;95766.31;;;4.40;100.00
6433;BME280;3249;42.690;23.260;2022-10-17T05:17:17;95825.69;;;4.77;100.00
6433;BME280;3249;42.690;23.260;2022-10-17T05:19:42;95814.75;;;4.67;100.00
6433;BME280;3249;42.690;23.260;2022-10-17T05:22:08;95825.25;;;4.64;100.00
6433;BME280;3249;42.690;23.260;2022-10-17T05:24:34;95815.06;;;4.81;100.00
6433;BME280;3249;42.690;23.260;2022-10-17T05:26:59;95829.56;;;4.81;100.00
6433;BME280;3249;42.690;23.260;2022-10-17T05:29:24;95828.06;;;4.88;100.00
6433;BME280;3249;42.690;23.260;2022-10-17T05:31:50;95836.13;;;4.83;100.00
6433;BME280;3249;42.690;23.260;2022-10-17T05:34:15;95839.25;;;5.22;100.00
6433;BME280;3249;42.690;23.260;2022-10-17T05:36:41;95823.50;;;5.27;100.00
6433;BME280;3249;42.690;23.260;2022-10-17T05:39:06;95843.72;;;5.55;100.00
6433;BME280;3249;42.690;23.260;2022-10-17T05:41:33;95847.09;;;5.64;100.00
6433;BME280;3249;42.690;23.260;2022-10-17T05:43:58;95855.72;;;5.80;100.00
6433;BME280;3249;42.690;23.260;2022-10-17T05:46:24;95853.97;;;5.98;100.00
6433;BME280;3249;42.690;23.260;2022-10-17T05:48:49;95857.44;;;6.15;100.00
6433;BME280;3249;42.690;23.260;2022-10-17T05:51:15;95861.38;;;6.09;100.00
6433;BME280;3249;42.690;23.260;2022-10-17T05:53:41;95829.28;;;5.72;100.00
6433;BME280;3249;42.690;23.260;2022-10-17T05:56:09;95867.41;;;5.83;100.00
6433;BME280;3249;42.690;23.260;2022-10-17T05:58:35;95836.97;;;5.54;100.00
6433;BME280;3249;42.690;23.260;2022-10-17T06:01:03;95861.88;;;5.70;100.00
6433;BME280;3249;42.690;23.260;2022-10-17T06:03:29;95861.53;;;5.82;100.00
6433;BME280;3249;42.690;23.260;2022-10-17T06:05:55;95874.53;;;6.14;100.00
6433;BME280;3249;42.690;23.260;2022-10-17T06:08:21;95874.69;;;6.13;100.00
6433;BME280;3249;42.690;23.260;2022-10-17T06:10:48;95882.59;;;6.27;100.00
6433;BME280;3249;42.690;23.260;2022-10-17T06:13:14;95888.63;;;6.44;100.00
6433;BME280;3249;42.690;23.260;2022-10-17T06:15:40;95874.31;;;6.33;100.00
6433;BME280;3249;42.690;23.260;2022-10-17T06:18:05;95876.66;;;6.52;100.00
6433;BME280;3249;42.690;23.260;2022-10-17T06:20:30;95886.25;;;6.50;100.00
6433;BME280;3249;42.690;23.260;2022-10-17T06:22:56;95891.38;;;6.50;100.00
6433;BME280;3249;42.690;23.260;2022-10-17T06:25:21;95885.72;;;6.72;100.00
6433;BME280;3249;42.690;23.260;2022-10-17T06:27:47;95880.94;;;6.77;100.00
6433;BME280;3249;42.690;23.260;2022-10-17T06:30:12;95904.81;;;7.27;100.00
6433;BME280;3249;42.690;23.260;2022-10-17T06:32:38;95903.59;;;7.47;100.00
6433;BME280;3249;42.690;23.260;2022-10-17T06:35:04;95913.59;;;7.17;100.00
6433;BME280;3249;42.690;23.260;2022-10-17T06:37:30;95911.47;;;7.12;100.00
6433;BME280;3249;42.690;23.260;2022-10-17T06:39:57;95915.16;;;7.10;100.00
6433;BME280;3249;42.690;23.260;2022-10-17T06:42:22;95920.47;;;7.16;100.00
6433;BME280;3249;42.690;23.260;2022-10-17T06:44:48;95918.66;;;7.58;100.00
6433;BME280;3249;42.690;23.260;2022-10-17T06:47:13;95886.63;;;7.62;100.00
6433;BME280;3249;42.690;23.260;2022-10-17T06:49:39;95923.03;;;8.06;100.00
6433;BME280;3249;42.690;23.260;2022-10-17T06:52:04;95917.44;;;8.18;100.00
6433;BME280;3249;42.690;23.260;2022-10-17T06:54:30;95916.31;;;8.21;100.00
6433;BME280;3249;42.690;23.260;2022-10-17T06:56:55;95916.47;;;8.35;100.00
6433;BME280;3249;42.690;23.260;2022-10-17T06:59:21;95925.75;;;8.20;100.00
6433;BME280;3249;42.690;23.260;2022-10-17T07:01:46;95926.41;;;8.46;100.00
6433;BME280;3249;42.690;23.260;2022-10-17T07:04:12;95884.72;;;8.44;100.00
6433;BME280;3249;42.690;23.260;2022-10-17T07:06:37;95883.59;;;8.47;100.00
6433;BME280;3249;42.690;23.260;2022-10-17T07:09:03;95898.66;;;8.50;100.00
6433;BME280;3249;42.690;23.260;2022-10-17T07:11:31;95925.91;;;8.67;100.00
6433;BME280;3249;42.690;23.260;2022-10-17T07:13:57;95935.94;;;8.92;100.00
6433;BME280;3249;42.690;23.260;2022-10-17T07:16:23;95926.38;;;8.70;100.00
6433;BME280;3249;42.690;23.260;2022-10-17T07:18:49;95935.28;;;8.90;100.00
6433;BME280;3249;42.690;23.260;2022-10-17T07:21:16;95924.69;;;8.93;100.00
6433;BME280;3249;42.690;23.260;2022-10-17T07:23:41;95924.69;;;9.01;100.00
6433;BME280;3249;42.690;23.260;2022-10-17T07:26:10;95896.34;;;8.79;100.00
6433;BME280;3249;42.690;23.260;2022-10-17T07:28:37;95928.41;;;8.91;100.00
6433;BME280;3249;42.690;23.260;2022-10-17T07:31:05;95926.78;;;8.98;100.00
6433;BME280;3249;42.690;23.260;2022-10-17T07:33:31;95932.25;;;9.33;100.00
6433;BME280;3249;42.690;23.260;2022-10-17T07:35:58;95921.59;;;9.44;100.00
6433;BME280;3249;42.690;23.260;2022-10-17T07:38:24;95943.59;;;9.78;100.00
6433;BME280;3249;42.690;23.260;2022-10-17T07:40:57;95936.97;;;9.83;100.00
6433;BME280;3249;42.690;23.260;2022-10-17T07:43:24;95951.31;;;10.00;100.00
6433;BME280;3249;42.690;23.260;2022-10-17T07:45:50;95942.41;;;10.11;100.00
6433;BME280;3249;42.690;23.260;2022-10-17T07:48:16;95948.41;;;10.26;100.00
6433;BME280;3249;42.690;23.260;2022-10-17T07:50:42;95949.78;;;10.36;100.00
6433;BME280;3249;42.690;23.260;2022-10-17T07:53:07;95958.13;;;10.38;100.00
6433;BME280;3249;42.690;23.260;2022-10-17T07:55:33;95955.66;;;10.45;100.00
6433;BME280;3249;42.690;23.260;2022-10-17T07:57:58;95947.03;;;10.38;100.00
6433;BME280;3249;42.690;23.260;2022-10-17T08:00:26;95953.09;;;10.45;100.00
6433;BME280;3249;42.690;23.260;2022-10-17T08:02:52;95942.53;;;10.40;100.00
6433;BME280;3249;42.690;23.260;2022-10-17T08:05:17;95944.47;;;10.38;100.00
6433;BME280;3249;42.690;23.260;2022-10-17T08:07:43;95949.28;;;10.41;100.00
6433;BME280;3249;42.690;23.260;2022-10-17T08:10:11;95943.00;;;10.21;100.00
6433;BME280;3249;42.690;23.260;2022-10-17T08:12:36;95941.56;;;10.55;100.00
6433;BME280;3249;42.690;23.260;2022-10-17T08:15:03;95941.41;;;10.71;100.00
6433;BME280;3249;42.690;23.260;2022-10-17T08:17:28;95946.22;;;10.74;100.00
6433;BME280;3249;42.690;23.260;2022-10-17T08:19:54;95942.25;;;11.01;100.00
6433;BME280;3249;42.690;23.260;2022-10-17T08:22:19;95895.34;;;10.91;100.00
6433;BME280;3249;42.690;23.260;2022-10-17T08:24:44;95937.81;;;11.09;100.00
6433;BME280;3249;42.690;23.260;2022-10-17T08:27:11;95940.47;;;11.16;100.00
6433;BME280;3249;42.690;23.260;2022-10-17T08:29:38;95937.44;;;11.27;100.00
6433;BME280;3249;42.690;23.260;2022-10-17T08:32:05;95906.13;;;11.30;100.00
6433;BME280;3249;42.690;23.260;2022-10-17T08:34:31;95917.75;;;11.40;100.00
6433;BME280;3249;42.690;23.260;2022-10-17T08:36:56;95940.84;;;11.48;100.00
6433;BME280;3249;42.690;23.260;2022-10-17T08:39:22;95931.06;;;11.73;100.00
6433;BME280;3249;42.690;23.260;2022-10-17T08:42:02;95941.28;;;12.02;100.00
6433;BME280;3249;42.690;23.260;2022-10-17T08:47:45;95952.78;;;12.20;100.00
6433;BME280;3249;42.690;23.260;2022-10-17T08:50:21;95923.34;;;12.15;100.00
6433;BME280;3249;42.690;23.260;2022-10-17T08:52:52;95947.78;;;12.40;98.05
6433;BME280;3249;42.690;23.260;2022-10-17T08:55:26;95947.31;;;12.30;97.14
6433;BME280;3249;42.690;23.260;2022-10-17T08:57:52;95952.22;;;12.25;95.45
6433;BME280;3249;42.690;23.260;2022-10-17T09:00:19;95954.63;;;12.26;95.84
6433;BME280;3249;42.690;23.260;2022-10-17T09:05:55;95944.00;;;12.63;94.15
6433;BME280;3249;42.690;23.260;2022-10-17T09:08:55;95946.50;;;12.78;89.56
6433;BME280;3249;42.690;23.260;2022-10-17T09:19:35;95904.38;;;12.84;68.85
6433;BME280;3249;42.690;23.260;2022-10-17T09:22:19;95957.53;;;13.20;58.41
6433;BME280;3249;42.690;23.260;2022-10-17T09:24:55;95925.63;;;13.07;55.70
6433;BME280;3249;42.690;23.260;2022-10-17T09:27:23;95954.81;;;13.35;56.27
6433;BME280;3249;42.690;23.260;2022-10-17T09:29:59;95952.13;;;13.56;54.99
6433;BME280;3249;42.690;23.260;2022-10-17T09:32:27;95958.75;;;13.65;55.81
6433;BME280;3249;42.690;23.260;2022-10-17T09:34:53;95958.34;;;13.68;52.12
6433;BME280;3249;42.690;23.260;2022-10-17T09:37:21;95925.91;;;13.72;53.99
6433;BME280;3249;42.690;23.260;2022-10-17T09:39:49;95944.50;;;13.95;56.08
6433;BME280;3249;42.690;23.260;2022-10-17T09:42:16;95922.41;;;13.99;50.54
6433;BME280;3249;42.690;23.260;2022-10-17T09:45:12;95948.19;;;14.33;48.75
6433;BME280;3249;42.690;23.260;2022-10-17T09:47:49;95948.19;;;14.46;48.48
6433;BME280;3249;42.690;23.260;2022-10-17T09:50:24;95947.00;;;14.36;47.90
6433;BME280;3249;42.690;23.260;2022-10-17T09:52:51;95939.59;;;14.52;48.54
6433;BME280;3249;42.690;23.260;2022-10-17T09:55:21;95950.38;;;14.69;46.12
6433;BME280;3249;42.690;23.260;2022-10-17T09:58:06;95946.81;;;14.83;46.35
6433;BME280;3249;42.690;23.260;2022-10-17T10:00:34;95936.22;;;14.97;44.92
6433;BME280;3249;42.690;23.260;2022-10-17T10:03:21;95937.56;;;15.06;43.69
6433;BME280;3249;42.690;23.260;2022-10-17T10:06:08;95941.78;;;15.01;43.26
6433;BME280;3249;42.690;23.260;2022-10-17T10:11:13;95905.25;;;15.02;42.27
6433;BME280;3249;42.690;23.260;2022-10-17T10:13:40;95933.16;;;15.20;41.43
6433;BME280;3249;42.690;23.260;2022-10-17T10:16:20;95908.00;;;15.14;38.45
6433;BME280;3249;42.690;23.260;2022-10-17T10:18:47;95923.53;;;15.33;35.85
6433;BME280;3249;42.690;23.260;2022-10-17T10:23:45;95937.53;;;15.39;35.64
6433;BME280;3249;42.690;23.260;2022-10-17T10:28:51;95934.06;;;15.58;33.29
6433;BME280;3249;42.690;23.260;2022-10-17T10:31:25;95900.97;;;15.47;32.97
6433;BME280;3249;42.690;23.260;2022-10-17T10:33:51;95933.84;;;15.59;32.72
6433;BME280;3249;42.690;23.260;2022-10-17T10:36:16;95931.84;;;15.61;33.49
6433;BME280;3249;42.690;23.260;2022-10-17T10:38:52;95919.41;;;15.76;33.58
6433;BME280;3249;42.690;23.260;2022-10-17T10:41:19;95922.56;;;15.78;34.87
6433;BME280;3249;42.690;23.260;2022-10-17T10:43:47;95914.84;;;16.03;34.45
6433;BME280;3249;42.690;23.260;2022-10-17T10:46:27;95921.69;;;15.97;33.24
6433;BME280;3249;42.690;23.260;2022-10-17T10:51:43;95880.22;;;15.84;33.28
6433;BME280;3249;42.690;23.260;2022-10-17T10:54:15;95901.66;;;16.04;33.29
6433;BME280;3249;42.690;23.260;2022-10-17T10:56:45;95900.69;;;15.99;33.53
6433;BME280;3249;42.690;23.260;2022-10-17T10:59:16;95901.97;;;16.14;33.96
6433;BME280;3249;42.690;23.260;2022-10-17T11:04:43;95898.00;;;16.12;33.35
6433;BME280;3249;42.690;23.260;2022-10-17T11:07:19;95891.59;;;16.14;34.25
6433;BME280;3249;42.690;23.260;2022-10-17T11:15:47;95879.66;;;16.07;35.27
6433;BME280;3249;42.690;23.260;2022-10-17T11:18:25;95883.00;;;16.38;36.08
6433;BME280;3249;42.690;23.260;2022-10-17T11:20:59;95868.44;;;16.37;32.28
6433;BME280;3249;42.690;23.260;2022-10-17T11:23:42;95881.78;;;16.47;32.66
6433;BME280;3249;42.690;23.260;2022-10-17T11:26:25;95871.75;;;16.51;32.23
6433;BME280;3249;42.690;23.260;2022-10-17T11:29:01;95880.63;;;16.43;31.88
6433;BME280;3249;42.690;23.260;2022-10-17T11:31:30;95878.78;;;16.44;31.72
6433;BME280;3249;42.690;23.260;2022-10-17T11:34:22;95875.56;;;16.48;30.63
6433;BME280;3249;42.690;23.260;2022-10-17T11:36:52;95880.66;;;16.61;30.29
6433;BME280;3249;42.690;23.260;2022-10-17T11:39:22;95873.38;;;16.70;30.78
6433;BME280;3249;42.690;23.260;2022-10-17T11:41:54;95882.28;;;16.80;31.14
6433;BME280;3249;42.690;23.260;2022-10-17T11:44:34;95876.34;;;16.73;30.73
6433;BME280;3249;42.690;23.260;2022-10-17T11:49:44;95830.19;;;16.69;31.11
6433;BME280;3249;42.690;23.260;2022-10-17T11:52:34;95866.75;;;17.10;31.87
6433;BME280;3249;42.690;23.260;2022-10-17T11:55:15;95870.88;;;16.99;31.74
6433;BME280;3249;42.690;23.260;2022-10-17T12:03:31;95829.31;;;16.75;31.12
6433;BME280;3249;42.690;23.260;2022-10-17T12:06:07;95856.78;;;16.89;31.38
6433;BME280;3249;42.690;23.260;2022-10-17T12:08:51;95856.53;;;16.90;32.10
6433;BME280;3249;42.690;23.260;2022-10-17T12:11:36;95857.59;;;17.07;31.38
6433;BME280;3249;42.690;23.260;2022-10-17T12:16:59;95849.47;;;17.15;32.16
6433;BME280;3249;42.690;23.260;2022-10-17T12:19:27;95832.50;;;16.95;31.69
6433;BME280;3249;42.690;23.260;2022-10-17T12:30:01;95844.78;;;17.06;31.95
6433;BME280;3249;42.690;23.260;2022-10-17T12:32:28;95828.97;;;17.07;30.97
6433;BME280;3249;42.690;23.260;2022-10-17T12:34:55;95842.44;;;17.16;31.60
6433;BME280;3249;42.690;23.260;2022-10-17T12:45:53;95838.03;;;17.34;31.68
6433;BME280;3249;42.690;23.260;2022-10-17T12:56:00;95834.41;;;17.53;30.64
6433;BME280;3249;42.690;23.260;2022-10-17T12:58:27;95842.84;;;17.67;29.74
6433;BME280;3249;42.690;23.260;2022-10-17T13:00:55;95841.25;;;17.66;29.91
6433;BME280;3249;42.690;23.260;2022-10-17T13:03:25;95847.50;;;17.65;30.69
6433;BME280;3249;42.690;23.260;2022-10-17T13:05:53;95828.75;;;17.56;30.47
6433;BME280;3249;42.690;23.260;2022-10-17T13:08:28;95807.97;;;17.38;30.80
6433;BME280;3249;42.690;23.260;2022-10-17T13:10:55;95830.88;;;17.48;30.91
6433;BME280;3249;42.690;23.260;2022-10-17T13:13:29;95838.69;;;17.48;30.42
6433;BME280;3249;42.690;23.260;2022-10-17T13:15:59;95836.53;;;17.45;30.16
6433;BME280;3249;42.690;23.260;2022-10-17T13:18:27;95829.34;;;17.58;29.72
6433;BME280;3249;42.690;23.260;2022-10-17T13:23:28;95827.31;;;17.60;30.04
6433;BME280;3249;42.690;23.260;2022-10-17T13:28:59;95812.81;;;17.64;30.36
6433;BME280;3249;42.690;23.260;2022-10-17T13:31:36;95831.56;;;17.73;31.84
6433;BME280;3249;42.690;23.260;2022-10-17T13:34:04;95833.31;;;17.61;33.11
6433;BME280;3249;42.690;23.260;2022-10-17T13:36:31;95838.25;;;17.80;30.83
6433;BME280;3249;42.690;23.260;2022-10-17T13:38:59;95837.22;;;17.81;30.67
6433;BME280;3249;42.690;23.260;2022-10-17T13:41:31;95836.44;;;17.81;30.92
6433;BME280;3249;42.690;23.260;2022-10-17T13:43:59;95827.00;;;17.80;30.45
6433;BME280;3249;42.690;23.260;2022-10-17T13:46:29;95813.53;;;17.71;30.26
6433;BME280;3249;42.690;23.260;2022-10-17T13:48:57;95841.16;;;17.72;30.30
6433;BME280;3249;42.690;23.260;2022-10-17T13:51:25;95774.13;;;17.20;31.33
6433;BME280;3249;42.690;23.260;2022-10-17T13:53:52;95842.88;;;17.31;31.32
6433;BME280;3249;42.690;23.260;2022-10-17T13:58:50;95830.66;;;17.31;31.80
6433;BME280;3249;42.690;23.260;2022-10-17T14:01:17;95830.38;;;17.39;31.83
6433;BME280;3249;42.690;23.260;2022-10-17T14:03:44;95833.03;;;17.51;32.24
6433;BME280;3249;42.690;23.260;2022-10-17T14:08:44;95795.03;;;17.14;33.00
6433;BME280;3249;42.690;23.260;2022-10-17T14:11:30;95839.41;;;17.19;32.13
6433;BME280;3249;42.690;23.260;2022-10-17T14:13:57;95818.75;;;17.06;33.01
6433;BME280;3249;42.690;23.260;2022-10-17T14:16:25;95836.00;;;17.18;34.12
6433;BME280;3249;42.690;23.260;2022-10-17T14:18:52;95813.44;;;17.01;35.44
6433;BME280;3249;42.690;23.260;2022-10-17T14:21:24;95845.00;;;17.04;35.98
6433;BME280;3249;42.690;23.260;2022-10-17T14:24:22;95846.88;;;16.97;36.21
6433;BME280;3249;42.690;23.260;2022-10-17T14:26:53;95823.19;;;16.87;36.29
6433;BME280;3249;42.690;23.260;2022-10-17T14:31:47;95837.53;;;16.72;37.74
6433;BME280;3249;42.690;23.260;2022-10-17T14:34:20;95811.75;;;16.52;37.86
6433;BME280;3249;42.690;23.260;2022-10-17T14:36:49;95832.81;;;16.62;38.30
6433;BME280;3249;42.690;23.260;2022-10-17T14:39:21;95835.22;;;16.64;38.85
6433;BME280;3249;42.690;23.260;2022-10-17T14:41:48;95842.44;;;16.62;39.98
6433;BME280;3249;42.690;23.260;2022-10-17T14:44:32;95839.09;;;16.55;39.41
6433;BME280;3249;42.690;23.260;2022-10-17T14:47:03;95847.13;;;16.53;40.22
6433;BME280;3249;42.690;23.260;2022-10-17T14:49:36;95837.75;;;16.52;41.11
6433;BME280;3249;42.690;23.260;2022-10-17T14:54:42;95844.63;;;16.40;42.57
6433;BME280;3249;42.690;23.260;2022-10-17T14:57:19;95851.81;;;16.38;43.24
6433;BME280;3249;42.690;23.260;2022-10-17T14:59:46;95845.97;;;16.18;44.15
6433;BME280;3249;42.690;23.260;2022-10-17T15:02:12;95823.22;;;15.89;45.19
6433;BME280;3249;42.690;23.260;2022-10-17T15:04:37;95846.09;;;16.05;45.76
6433;BME280;3249;42.690;23.260;2022-10-17T15:07:03;95846.41;;;15.91;46.63
6433;BME280;3249;42.690;23.260;2022-10-17T15:09:28;95802.28;;;15.53;47.18
6433;BME280;3249;42.690;23.260;2022-10-17T15:11:59;95848.28;;;15.77;48.72
6433;BME280;3249;42.690;23.260;2022-10-17T15:14:26;95834.63;;;15.57;50.49
6433;BME280;3249;42.690;23.260;2022-10-17T15:16:51;95848.38;;;15.64;50.30
6433;BME280;3249;42.690;23.260;2022-10-17T15:19:16;95853.59;;;15.58;51.41
6433;BME280;3249;42.690;23.260;2022-10-17T15:21:42;95842.72;;;15.36;51.04
6433;BME280;3249;42.690;23.260;2022-10-17T15:24:08;95850.88;;;15.33;51.24
6433;BME280;3249;42.690;23.260;2022-10-17T15:26:34;95856.06;;;15.33;52.42